sensor_id;sensor_type;location;lat;lon;timestamp;P1;durP1;ratioP1;P2;durP2;ratioP2
37169;SDS011;23062;13.952;100.608;2023-05-10T00:00:11;13.00;;;10.00;;
37169;SDS011;23062;13.952;100.608;2023-05-10T00:04:44;14.00;;;10.00;;
37169;SDS011;23062;13.952;100.608;2023-05-10T00:09:10;12.00;;;9.00;;
37169;SDS011;23062;13.952;100.608;2023-05-10T00:13:36;13.00;;;10.00;;
37169;SDS011;23062;13.952;100.608;2023-05-10T00:18:04;16.00;;;11.00;;
37169;SDS011;23062;13.952;100.608;2023-05-10T00:22:31;14.00;;;10.00;;
37169;SDS011;23062;13.952;100.608;2023-05-10T00:27:03;13.00;;;10.00;;
37169;SDS011;23062;13.952;100.608;2023-05-10T00:31:31;17.00;;;12.00;;
37169;SDS011;23062;13.952;100.608;2023-05-10T00:35:57;13.00;;;10.00;;
37169;SDS011;23062;13.952;100.608;2023-05-10T00:40:23;14.00;;;10.00;;
37169;SDS011;23062;13.952;100.608;2023-05-10T00:44:49;15.00;;;11.00;;
37169;SDS011;23062;13.952;100.608;2023-05-10T00:49:18;15.00;;;11.00;;
37169;SDS011;23062;13.952;100.608;2023-05-10T00:53:51;14.00;;;10.00;;
37169;SDS011;23062;13.952;100.608;2023-05-10T00:58:17;12.00;;;9.00;;
37169;SDS011;23062;13.952;100.608;2023-05-10T01:02:46;14.00;;;10.00;;
37169;SDS011;23062;13.952;100.608;2023-05-10T01:07:20;13.00;;;10.00;;
37169;SDS011;23062;13.952;100.608;2023-05-10T01:11:46;15.00;;;11.00;;
37169;SDS011;23062;13.952;100.608;2023-05-10T01:16:13;15.00;;;11.00;;
37169;SDS011;23062;13.952;100.608;2023-05-10T01:20:40;16.00;;;11.00;;
37169;SDS011;23062;13.952;100.608;2023-05-10T01:25:11;13.00;;;9.00;;
37169;SDS011;23062;13.952;100.608;2023-05-10T01:34:59;12.00;;;9.00;;
37169;SDS011;23062;13.952;100.608;2023-05-10T01:39:49;16.00;;;11.00;;
37169;SDS011;23062;13.952;100.608;2023-05-10T01:49:03;13.00;;;9.00;;
37169;SDS011;23062;13.952;100.608;2023-05-10T01:53:29;14.00;;;10.00;;
37169;SDS011;23062;13.952;100.608;2023-05-10T01:58:13;16.00;;;11.00;;
37169;SDS011;23062;13.952;100.608;2023-05-10T02:02:46;16.00;;;12.00;;
37169;SDS011;23062;13.952;100.608;2023-05-10T02:07:12;13.00;;;9.00;;
37169;SDS011;23062;13.952;100.608;2023-05-10T02:11:39;12.00;;;9.00;;
37169;SDS011;23062;13.952;100.608;2023-05-10T02:16:06;14.00;;;10.00;;
37169;SDS011;23062;13.952;100.608;2023-05-10T02:20:43;12.00;;;8.00;;
37169;SDS011;23062;13.952;100.608;2023-05-10T02:25:11;13.00;;;9.00;;
37169;SDS011;23062;13.952;100.608;2023-05-10T02:29:46;12.00;;;8.00;;
37169;SDS011;23062;13.952;100.608;2023-05-10T02:34:12;11.00;;;7.00;;
37169;SDS011;23062;13.952;100.608;2023-05-10T02:38:41;12.00;;;8.00;;
37169;SDS011;23062;13.952;100.608;2023-05-10T02:43:12;11.00;;;8.00;;
37169;SDS011;23062;13.952;100.608;2023-05-10T02:47:39;12.00;;;8.00;;
37169;SDS011;23062;13.952;100.608;2023-05-10T02:52:06;11.00;;;8.00;;
37169;SDS011;23062;13.952;100.608;2023-05-10T02:56:33;12.00;;;9.00;;
37169;SDS011;23062;13.952;100.608;2023-05-10T03:01:03;16.00;;;11.00;;
37169;SDS011;23062;13.952;100.608;2023-05-10T03:05:35;14.00;;;10.00;;
37169;SDS011;23062;13.952;100.608;2023-05-10T03:10:03;17.00;;;12.00;;
37169;SDS011;23062;13.952;100.608;2023-05-10T03:19:06;14.00;;;10.00;;
37169;SDS011;23062;13.952;100.608;2023-05-10T03:23:35;14.00;;;11.00;;
37169;SDS011;23062;13.952;100.608;2023-05-10T03:28:01;15.00;;;11.00;;
37169;SDS011;23062;13.952;100.608;2023-05-10T03:32:29;19.00;;;13.00;;
37169;SDS011;23062;13.952;100.608;2023-05-10T03:36:56;15.00;;;11.00;;
37169;SDS011;23062;13.952;100.608;2023-05-10T03:41:22;17.00;;;13.00;;
37169;SDS011;23062;13.952;100.608;2023-05-10T03:45:50;19.00;;;14.00;;
37169;SDS011;23062;13.952;100.608;2023-05-10T03:50:16;17.00;;;13.00;;
37169;SDS011;23062;13.952;100.608;2023-05-10T03:54:45;16.00;;;12.00;;
37169;SDS011;23062;13.952;100.608;2023-05-10T03:59:11;23.00;;;17.00;;
37169;SDS011;23062;13.952;100.608;2023-05-10T04:03:40;21.00;;;15.00;;
37169;SDS011;23062;13.952;100.608;2023-05-10T04:08:06;18.00;;;13.00;;
37169;SDS011;23062;13.952;100.608;2023-05-10T04:12:35;17.00;;;13.00;;
37169;SDS011;23062;13.952;100.608;2023-05-10T04:17:01;20.00;;;15.00;;
37169;SDS011;23062;13.952;100.608;2023-05-10T04:21:26;21.00;;;15.00;;
37169;SDS011;23062;13.952;100.608;2023-05-10T04:25:58;24.00;;;17.00;;
37169;SDS011;23062;13.952;100.608;2023-05-10T04:30:26;23.00;;;18.00;;
37169;SDS011;23062;13.952;100.608;2023-05-10T04:34:52;17.00;;;13.00;;
37169;SDS011;23062;13.952;100.608;2023-05-10T04:39:21;21.00;;;16.00;;
37169;SDS011;23062;13.952;100.608;2023-05-10T04:43:47;23.00;;;17.00;;
37169;SDS011;23062;13.952;100.608;2023-05-10T04:48:13;22.00;;;16.00;;
37169;SDS011;23062;13.952;100.608;2023-05-10T04:52:39;18.00;;;14.00;;
37169;SDS011;23062;13.952;100.608;2023-05-10T04:57:05;17.00;;;13.00;;
37169;SDS011;23062;13.952;100.608;2023-05-10T05:01:31;18.00;;;13.00;;
37169;SDS011;23062;13.952;100.608;2023-05-10T05:05:56;18.00;;;14.00;;
37169;SDS011;23062;13.952;100.608;2023-05-10T05:10:22;18.00;;;13.00;;
37169;SDS011;23062;13.952;100.608;2023-05-10T05:14:50;19.00;;;14.00;;
37169;SDS011;23062;13.952;100.608;2023-05-10T05:19:16;17.00;;;12.00;;
37169;SDS011;23062;13.952;100.608;2023-05-10T05:23:41;16.00;;;12.00;;
37169;SDS011;23062;13.952;100.608;2023-05-10T05:28:08;18.00;;;13.00;;
37169;SDS011;23062;13.952;100.608;2023-05-10T05:32:37;17.00;;;12.00;;
37169;SDS011;23062;13.952;100.608;2023-05-10T05:37:04;17.00;;;12.00;;
37169;SDS011;23062;13.952;100.608;2023-05-10T05:41:29;17.00;;;13.00;;
37169;SDS011;23062;13.952;100.608;2023-05-10T05:45:58;17.00;;;13.00;;
37169;SDS011;23062;13.952;100.608;2023-05-10T05:50:27;16.00;;;12.00;;
37169;SDS011;23062;13.952;100.608;2023-05-10T05:54:53;19.00;;;13.00;;
37169;SDS011;23062;13.952;100.608;2023-05-10T05:59:27;18.00;;;13.00;;
37169;SDS011;23062;13.952;100.608;2023-05-10T06:03:53;18.00;;;14.00;;
37169;SDS011;23062;13.952;100.608;2023-05-10T06:08:22;18.00;;;13.00;;
37169;SDS011;23062;13.952;100.608;2023-05-10T06:12:47;19.00;;;14.00;;
37169;SDS011;23062;13.952;100.608;2023-05-10T06:17:13;22.00;;;16.00;;
37169;SDS011;23062;13.952;100.608;2023-05-10T06:21:39;20.00;;;14.00;;
37169;SDS011;23062;13.952;100.608;2023-05-10T06:26:06;17.00;;;12.00;;
37169;SDS011;23062;13.952;100.608;2023-05-10T06:30:35;22.00;;;16.00;;
37169;SDS011;23062;13.952;100.608;2023-05-10T06:35:09;20.00;;;14.00;;
37169;SDS011;23062;13.952;100.608;2023-05-10T06:39:35;21.00;;;15.00;;
37169;SDS011;23062;13.952;100.608;2023-05-10T06:44:00;19.00;;;15.00;;
37169;SDS011;23062;13.952;100.608;2023-05-10T06:48:32;20.00;;;14.00;;
37169;SDS011;23062;13.952;100.608;2023-05-10T06:53:02;19.00;;;15.00;;
37169;SDS011;23062;13.952;100.608;2023-05-10T06:57:28;19.00;;;15.00;;
37169;SDS011;23062;13.952;100.608;2023-05-10T07:01:53;19.00;;;14.00;;
37169;SDS011;23062;13.952;100.608;2023-05-10T07:06:19;21.00;;;16.00;;
37169;SDS011;23062;13.952;100.608;2023-05-10T07:10:51;23.00;;;17.00;;
37169;SDS011;23062;13.952;100.608;2023-05-10T07:15:17;20.00;;;14.00;;
37169;SDS011;23062;13.952;100.608;2023-05-10T07:19:43;20.00;;;15.00;;
37169;SDS011;23062;13.952;100.608;2023-05-10T07:24:08;19.00;;;14.00;;
37169;SDS011;23062;13.952;100.608;2023-05-10T07:28:34;19.00;;;15.00;;
37169;SDS011;23062;13.952;100.608;2023-05-10T07:33:08;18.00;;;14.00;;
37169;SDS011;23062;13.952;100.608;2023-05-10T07:37:35;17.00;;;13.00;;
37169;SDS011;23062;13.952;100.608;2023-05-10T07:42:01;16.00;;;12.00;;
37169;SDS011;23062;13.952;100.608;2023-05-10T07:46:32;20.00;;;15.00;;
37169;SDS011;23062;13.952;100.608;2023-05-10T07:51:02;19.00;;;14.00;;
37169;SDS011;23062;13.952;100.608;2023-05-10T07:55:33;16.00;;;12.00;;
37169;SDS011;23062;13.952;100.608;2023-05-10T07:59:57;17.00;;;12.00;;
37169;SDS011;23062;13.952;100.608;2023-05-10T08:04:22;19.00;;;14.00;;
37169;SDS011;23062;13.952;100.608;2023-05-10T08:08:49;20.00;;;15.00;;
37169;SDS011;23062;13.952;100.608;2023-05-10T08:13:18;20.00;;;15.00;;
37169;SDS011;23062;13.952;100.608;2023-05-10T08:17:43;20.00;;;14.00;;
37169;SDS011;23062;13.952;100.608;2023-05-10T08:22:09;18.00;;;13.00;;
37169;SDS011;23062;13.952;100.608;2023-05-10T08:26:40;17.00;;;12.00;;
37169;SDS011;23062;13.952;100.608;2023-05-10T08:31:05;19.00;;;15.00;;
37169;SDS011;23062;13.952;100.608;2023-05-10T08:35:31;17.00;;;13.00;;
37169;SDS011;23062;13.952;100.608;2023-05-10T08:39:59;18.00;;;14.00;;
37169;SDS011;23062;13.952;100.608;2023-05-10T08:44:32;19.00;;;13.00;;
37169;SDS011;23062;13.952;100.608;2023-05-10T08:49:01;17.00;;;12.00;;
37169;SDS011;23062;13.952;100.608;2023-05-10T08:53:35;20.00;;;14.00;;
37169;SDS011;23062;13.952;100.608;2023-05-10T08:58:03;19.00;;;15.00;;
37169;SDS011;23062;13.952;100.608;2023-05-10T09:02:37;21.00;;;15.00;;
37169;SDS011;23062;13.952;100.608;2023-05-10T09:07:03;21.00;;;16.00;;
37169;SDS011;23062;13.952;100.608;2023-05-10T09:11:29;22.00;;;16.00;;
37169;SDS011;23062;13.952;100.608;2023-05-10T09:15:55;23.00;;;17.00;;
37169;SDS011;23062;13.952;100.608;2023-05-10T09:20:22;25.00;;;18.00;;
37169;SDS011;23062;13.952;100.608;2023-05-10T09:25:03;24.00;;;18.00;;
37169;SDS011;23062;13.952;100.608;2023-05-10T09:29:42;24.00;;;17.00;;
37169;SDS011;23062;13.952;100.608;2023-05-10T09:34:07;23.00;;;17.00;;
37169;SDS011;23062;13.952;100.608;2023-05-10T09:38:44;24.00;;;18.00;;
37169;SDS011;23062;13.952;100.608;2023-05-10T09:43:17;22.00;;;16.00;;
37169;SDS011;23062;13.952;100.608;2023-05-10T09:47:45;20.00;;;16.00;;
37169;SDS011;23062;13.952;100.608;2023-05-10T09:52:10;21.00;;;16.00;;
37169;SDS011;23062;13.952;100.608;2023-05-10T09:56:37;24.00;;;19.00;;
37169;SDS011;23062;13.952;100.608;2023-05-10T10:01:10;24.00;;;17.00;;
37169;SDS011;23062;13.952;100.608;2023-05-10T10:05:36;19.00;;;14.00;;
37169;SDS011;23062;13.952;100.608;2023-05-10T10:10:08;24.00;;;17.00;;
37169;SDS011;23062;13.952;100.608;2023-05-10T10:14:40;25.00;;;18.00;;
37169;SDS011;23062;13.952;100.608;2023-05-10T10:19:25;24.00;;;18.00;;
37169;SDS011;23062;13.952;100.608;2023-05-10T10:23:49;23.00;;;17.00;;
37169;SDS011;23062;13.952;100.608;2023-05-10T10:28:41;27.00;;;21.00;;
37169;SDS011;23062;13.952;100.608;2023-05-10T10:37:44;26.00;;;19.00;;
37169;SDS011;23062;13.952;100.608;2023-05-10T10:42:09;27.00;;;20.00;;
37169;SDS011;23062;13.952;100.608;2023-05-10T10:51:30;26.00;;;19.00;;
37169;SDS011;23062;13.952;100.608;2023-05-10T10:56:06;28.00;;;20.00;;
37169;SDS011;23062;13.952;100.608;2023-05-10T11:00:37;29.00;;;18.20;;
37169;SDS011;23062;13.952;100.608;2023-05-10T11:09:50;27.00;;;20.00;;
37169;SDS011;23062;13.952;100.608;2023-05-10T11:14:19;27.00;;;20.00;;
37169;SDS011;23062;13.952;100.608;2023-05-10T11:23:32;27.00;;;20.00;;
37169;SDS011;23062;13.952;100.608;2023-05-10T11:28:06;27.00;;;20.00;;
37169;SDS011;23062;13.952;100.608;2023-05-10T11:32:35;27.00;;;20.00;;
37169;SDS011;23062;13.952;100.608;2023-05-10T11:37:05;26.00;;;20.00;;
37169;SDS011;23062;13.952;100.608;2023-05-10T11:41:34;27.00;;;20.00;;
37169;SDS011;23062;13.952;100.608;2023-05-10T11:46:10;29.00;;;23.00;;
37169;SDS011;23062;13.952;100.608;2023-05-10T11:50:31;36.00;;;28.00;;
37169;SDS011;23062;13.952;100.608;2023-05-10T11:54:58;34.00;;;23.40;;
37169;SDS011;23062;13.952;100.608;2023-05-10T11:59:25;39.00;;;29.00;;
37169;SDS011;23062;13.952;100.608;2023-05-10T12:03:51;34.00;;;25.00;;
37169;SDS011;23062;13.952;100.608;2023-05-10T12:08:23;36.00;;;28.00;;
37169;SDS011;23062;13.952;100.608;2023-05-10T12:12:54;38.00;;;29.00;;
37169;SDS011;23062;13.952;100.608;2023-05-10T12:17:28;40.00;;;29.00;;
37169;SDS011;23062;13.952;100.608;2023-05-10T12:21:56;36.00;;;28.00;;
37169;SDS011;23062;13.952;100.608;2023-05-10T12:26:25;35.00;;;27.00;;
37169;SDS011;23062;13.952;100.608;2023-05-10T12:30:52;32.00;;;25.00;;
37169;SDS011;23062;13.952;100.608;2023-05-10T12:35:21;40.00;;;29.00;;
37169;SDS011;23062;13.952;100.608;2023-05-10T12:39:47;40.00;;;29.00;;
37169;SDS011;23062;13.952;100.608;2023-05-10T12:44:19;33.00;;;24.00;;
37169;SDS011;23062;13.952;100.608;2023-05-10T12:48:47;23.00;;;17.00;;
37169;SDS011;23062;13.952;100.608;2023-05-10T12:53:18;20.00;;;15.00;;
37169;SDS011;23062;13.952;100.608;2023-05-10T12:57:44;19.00;;;14.00;;
37169;SDS011;23062;13.952;100.608;2023-05-10T13:02:12;20.00;;;14.00;;
37169;SDS011;23062;13.952;100.608;2023-05-10T13:06:38;16.00;;;12.00;;
37169;SDS011;23062;13.952;100.608;2023-05-10T13:11:04;14.00;;;10.00;;
37169;SDS011;23062;13.952;100.608;2023-05-10T13:15:33;18.00;;;13.00;;
37169;SDS011;23062;13.952;100.608;2023-05-10T13:19:59;15.00;;;12.00;;
37169;SDS011;23062;13.952;100.608;2023-05-10T13:24:26;18.00;;;13.00;;
37169;SDS011;23062;13.952;100.608;2023-05-10T13:28:53;16.00;;;11.00;;
37169;SDS011;23062;13.952;100.608;2023-05-10T13:33:19;15.00;;;10.27;;
37169;SDS011;23062;13.952;100.608;2023-05-10T13:37:48;17.00;;;13.00;;
37169;SDS011;23062;13.952;100.608;2023-05-10T13:42:12;23.00;;;16.00;;
37169;SDS011;23062;13.952;100.608;2023-05-10T13:46:40;22.00;;;16.00;;
37169;SDS011;23062;13.952;100.608;2023-05-10T13:51:09;23.00;;;17.00;;
37169;SDS011;23062;13.952;100.608;2023-05-10T13:55:36;20.00;;;15.00;;
37169;SDS011;23062;13.952;100.608;2023-05-10T14:00:06;25.00;;;19.00;;
37169;SDS011;23062;13.952;100.608;2023-05-10T14:04:33;24.00;;;17.00;;
37169;SDS011;23062;13.952;100.608;2023-05-10T14:09:04;24.00;;;18.00;;
37169;SDS011;23062;13.952;100.608;2023-05-10T14:13:29;21.00;;;15.00;;
37169;SDS011;23062;13.952;100.608;2023-05-10T14:17:55;21.00;;;15.00;;
37169;SDS011;23062;13.952;100.608;2023-05-10T14:22:29;17.00;;;13.00;;
37169;SDS011;23062;13.952;100.608;2023-05-10T14:27:04;19.00;;;15.00;;
37169;SDS011;23062;13.952;100.608;2023-05-10T14:31:32;20.00;;;15.00;;
37169;SDS011;23062;13.952;100.608;2023-05-10T14:36:02;18.00;;;13.00;;
37169;SDS011;23062;13.952;100.608;2023-05-10T14:40:32;20.00;;;14.00;;
37169;SDS011;23062;13.952;100.608;2023-05-10T14:44:59;22.00;;;16.00;;
37169;SDS011;23062;13.952;100.608;2023-05-10T14:49:32;22.00;;;16.00;;
37169;SDS011;23062;13.952;100.608;2023-05-10T14:58:44;18.00;;;14.00;;
37169;SDS011;23062;13.952;100.608;2023-05-10T15:03:09;22.00;;;14.93;;
37169;SDS011;23062;13.952;100.608;2023-05-10T15:07:45;17.00;;;13.00;;
37169;SDS011;23062;13.952;100.608;2023-05-10T15:16:46;19.00;;;14.00;;
37169;SDS011;23062;13.952;100.608;2023-05-10T15:21:13;17.00;;;12.00;;
37169;SDS011;23062;13.952;100.608;2023-05-10T15:25:40;18.00;;;13.00;;
37169;SDS011;23062;13.952;100.608;2023-05-10T15:30:07;16.00;;;12.00;;
37169;SDS011;23062;13.952;100.608;2023-05-10T15:34:34;21.00;;;15.00;;
37169;SDS011;23062;13.952;100.608;2023-05-10T15:39:00;18.00;;;13.00;;
37169;SDS011;23062;13.952;100.608;2023-05-10T15:43:33;17.00;;;13.00;;
37169;SDS011;23062;13.952;100.608;2023-05-10T15:48:03;16.00;;;12.00;;
37169;SDS011;23062;13.952;100.608;2023-05-10T15:52:30;16.00;;;12.00;;
37169;SDS011;23062;13.952;100.608;2023-05-10T15:57:00;19.00;;;13.00;;
37169;SDS011;23062;13.952;100.608;2023-05-10T16:01:27;17.00;;;12.00;;
37169;SDS011;23062;13.952;100.608;2023-05-10T16:05:54;15.00;;;11.00;;
37169;SDS011;23062;13.952;100.608;2023-05-10T16:10:22;15.00;;;11.00;;
37169;SDS011;23062;13.952;100.608;2023-05-10T16:14:50;15.00;;;11.00;;
37169;SDS011;23062;13.952;100.608;2023-05-10T16:19:25;19.00;;;13.00;;
37169;SDS011;23062;13.952;100.608;2023-05-10T16:23:52;18.00;;;13.00;;
37169;SDS011;23062;13.952;100.608;2023-05-10T16:28:21;17.00;;;12.00;;
37169;SDS011;23062;13.952;100.608;2023-05-10T16:32:47;19.00;;;14.00;;
37169;SDS011;23062;13.952;100.608;2023-05-10T16:37:14;17.00;;;12.00;;
37169;SDS011;23062;13.952;100.608;2023-05-10T16:41:40;16.00;;;12.00;;
37169;SDS011;23062;13.952;100.608;2023-05-10T16:46:11;19.00;;;14.00;;
37169;SDS011;23062;13.952;100.608;2023-05-10T16:50:44;18.00;;;13.00;;
37169;SDS011;23062;13.952;100.608;2023-05-10T16:55:11;17.00;;;12.00;;
37169;SDS011;23062;13.952;100.608;2023-05-10T16:59:42;18.00;;;13.00;;
37169;SDS011;23062;13.952;100.608;2023-05-10T17:04:08;18.00;;;13.00;;
37169;SDS011;23062;13.952;100.608;2023-05-10T17:08:38;19.00;;;14.00;;
37169;SDS011;23062;13.952;100.608;2023-05-10T17:13:08;15.00;;;11.00;;
37169;SDS011;23062;13.952;100.608;2023-05-10T17:17:37;14.00;;;11.00;;
37169;SDS011;23062;13.952;100.608;2023-05-10T17:22:03;16.00;;;12.00;;
37169;SDS011;23062;13.952;100.608;2023-05-10T17:26:29;16.00;;;12.00;;
37169;SDS011;23062;13.952;100.608;2023-05-10T17:31:02;15.00;;;11.00;;
37169;SDS011;23062;13.952;100.608;2023-05-10T17:35:26;16.00;;;12.00;;
37169;SDS011;23062;13.952;100.608;2023-05-10T17:39:56;14.00;;;11.00;;
37169;SDS011;23062;13.952;100.608;2023-05-10T17:44:23;16.00;;;12.00;;
37169;SDS011;23062;13.952;100.608;2023-05-10T17:48:50;16.00;;;12.00;;
37169;SDS011;23062;13.952;100.608;2023-05-10T17:53:16;16.00;;;11.00;;
37169;SDS011;23062;13.952;100.608;2023-05-10T17:57:43;18.00;;;14.00;;
37169;SDS011;23062;13.952;100.608;2023-05-10T18:02:10;17.00;;;13.00;;
37169;SDS011;23062;13.952;100.608;2023-05-10T18:06:39;18.00;;;13.00;;
37169;SDS011;23062;13.952;100.608;2023-05-10T18:11:08;17.00;;;13.00;;
37169;SDS011;23062;13.952;100.608;2023-05-10T18:15:36;16.00;;;11.00;;
37169;SDS011;23062;13.952;100.608;2023-05-10T18:20:02;12.00;;;9.00;;
37169;SDS011;23062;13.952;100.608;2023-05-10T18:24:29;18.00;;;13.00;;
37169;SDS011;23062;13.952;100.608;2023-05-10T18:33:30;13.00;;;10.00;;
37169;SDS011;23062;13.952;100.608;2023-05-10T18:37:59;14.00;;;10.00;;
37169;SDS011;23062;13.952;100.608;2023-05-10T18:42:26;17.00;;;12.00;;
37169;SDS011;23062;13.952;100.608;2023-05-10T18:46:52;16.00;;;12.00;;
37169;SDS011;23062;13.952;100.608;2023-05-10T18:51:21;14.00;;;10.00;;
37169;SDS011;23062;13.952;100.608;2023-05-10T18:55:57;15.00;;;10.00;;
37169;SDS011;23062;13.952;100.608;2023-05-10T19:00:25;14.00;;;10.00;;
37169;SDS011;23062;13.952;100.608;2023-05-10T19:04:51;15.00;;;11.00;;
37169;SDS011;23062;13.952;100.608;2023-05-10T19:09:25;13.00;;;10.00;;
37169;SDS011;23062;13.952;100.608;2023-05-10T19:13:53;13.00;;;9.00;;
37169;SDS011;23062;13.952;100.608;2023-05-10T19:18:21;15.00;;;10.00;;
37169;SDS011;23062;13.952;100.608;2023-05-10T19:22:48;16.00;;;11.00;;
37169;SDS011;23062;13.952;100.608;2023-05-10T19:27:17;15.00;;;11.00;;
37169;SDS011;23062;13.952;100.608;2023-05-10T19:31:44;14.00;;;10.00;;
37169;SDS011;23062;13.952;100.608;2023-05-10T19:36:14;17.00;;;12.00;;
37169;SDS011;23062;13.952;100.608;2023-05-10T19:40:43;16.00;;;12.00;;
37169;SDS011;23062;13.952;100.608;2023-05-10T19:45:11;13.00;;;9.00;;
37169;SDS011;23062;13.952;100.608;2023-05-10T19:49:40;12.00;;;9.00;;
37169;SDS011;23062;13.952;100.608;2023-05-10T19:54:05;13.00;;;9.00;;
37169;SDS011;23062;13.952;100.608;2023-05-10T19:58:37;13.00;;;9.00;;
37169;SDS011;23062;13.952;100.608;2023-05-10T20:03:04;13.00;;;9.00;;
37169;SDS011;23062;13.952;100.608;2023-05-10T20:07:30;12.00;;;9.00;;
37169;SDS011;23062;13.952;100.608;2023-05-10T20:12:00;13.00;;;10.00;;
37169;SDS011;23062;13.952;100.608;2023-05-10T20:16:28;11.00;;;8.00;;
37169;SDS011;23062;13.952;100.608;2023-05-10T20:20:56;11.00;;;8.00;;
37169;SDS011;23062;13.952;100.608;2023-05-10T20:25:26;14.00;;;10.00;;
37169;SDS011;23062;13.952;100.608;2023-05-10T20:29:53;13.00;;;10.00;;
37169;SDS011;23062;13.952;100.608;2023-05-10T20:34:19;13.00;;;9.00;;
37169;SDS011;23062;13.952;100.608;2023-05-10T20:38:45;10.00;;;8.00;;
37169;SDS011;23062;13.952;100.608;2023-05-10T20:43:12;11.00;;;8.00;;
37169;SDS011;23062;13.952;100.608;2023-05-10T20:47:38;12.00;;;8.00;;
37169;SDS011;23062;13.952;100.608;2023-05-10T20:52:11;12.00;;;9.00;;
37169;SDS011;23062;13.952;100.608;2023-05-10T20:56:37;12.00;;;9.00;;
37169;SDS011;23062;13.952;100.608;2023-05-10T21:01:06;11.00;;;8.00;;
37169;SDS011;23062;13.952;100.608;2023-05-10T21:05:32;13.00;;;9.00;;
37169;SDS011;23062;13.952;100.608;2023-05-10T21:09:58;13.00;;;8.67;;
37169;SDS011;23062;13.952;100.608;2023-05-10T21:14:24;12.00;;;9.00;;
37169;SDS011;23062;13.952;100.608;2023-05-10T21:18:50;13.00;;;9.00;;
37169;SDS011;23062;13.952;100.608;2023-05-10T21:23:19;13.00;;;9.00;;
37169;SDS011;23062;13.952;100.608;2023-05-10T21:27:59;16.00;;;11.00;;
37169;SDS011;23062;13.952;100.608;2023-05-10T21:32:28;21.00;;;15.00;;
37169;SDS011;23062;13.952;100.608;2023-05-10T21:36:58;28.00;;;20.00;;
37169;SDS011;23062;13.952;100.608;2023-05-10T21:41:37;21.00;;;15.00;;
37169;SDS011;23062;13.952;100.608;2023-05-10T21:46:04;21.00;;;15.00;;
37169;SDS011;23062;13.952;100.608;2023-05-10T21:50:32;24.00;;;17.00;;
37169;SDS011;23062;13.952;100.608;2023-05-10T21:55:01;23.00;;;17.00;;
37169;SDS011;23062;13.952;100.608;2023-05-10T21:59:30;20.00;;;14.00;;
37169;SDS011;23062;13.952;100.608;2023-05-10T22:03:57;18.00;;;14.00;;
37169;SDS011;23062;13.952;100.608;2023-05-10T22:08:27;20.00;;;15.00;;
37169;SDS011;23062;13.952;100.608;2023-05-10T22:12:54;19.00;;;14.00;;
37169;SDS011;23062;13.952;100.608;2023-05-10T22:17:22;22.00;;;16.00;;
37169;SDS011;23062;13.952;100.608;2023-05-10T22:21:51;31.00;;;22.40;;
37169;SDS011;23062;13.952;100.608;2023-05-10T22:26:21;28.00;;;21.00;;
37169;SDS011;23062;13.952;100.608;2023-05-10T22:30:52;24.00;;;17.00;;
37169;SDS011;23062;13.952;100.608;2023-05-10T22:35:25;21.00;;;15.00;;
37169;SDS011;23062;13.952;100.608;2023-05-10T22:39:59;20.00;;;15.00;;
37169;SDS011;23062;13.952;100.608;2023-05-10T22:44:43;24.00;;;17.00;;
37169;SDS011;23062;13.952;100.608;2023-05-10T22:49:07;20.00;;;15.00;;
37169;SDS011;23062;13.952;100.608;2023-05-10T22:58:07;22.00;;;17.00;;
37169;SDS011;23062;13.952;100.608;2023-05-10T23:02:36;22.00;;;16.00;;
37169;SDS011;23062;13.952;100.608;2023-05-10T23:07:03;25.00;;;19.00;;
37169;SDS011;23062;13.952;100.608;2023-05-10T23:11:30;29.00;;;21.00;;
37169;SDS011;23062;13.952;100.608;2023-05-10T23:16:06;24.00;;;19.00;;
37169;SDS011;23062;13.952;100.608;2023-05-10T23:20:33;28.00;;;22.00;;
37169;SDS011;23062;13.952;100.608;2023-05-10T23:25:01;29.00;;;22.00;;
37169;SDS011;23062;13.952;100.608;2023-05-10T23:29:28;28.00;;;20.00;;
37169;SDS011;23062;13.952;100.608;2023-05-10T23:33:55;29.00;;;21.00;;
37169;SDS011;23062;13.952;100.608;2023-05-10T23:38:22;29.00;;;22.00;;
37169;SDS011;23062;13.952;100.608;2023-05-10T23:42:50;30.00;;;23.00;;
37169;SDS011;23062;13.952;100.608;2023-05-10T23:47:17;31.00;;;23.00;;
37169;SDS011;23062;13.952;100.608;2023-05-10T23:51:43;33.00;;;26.00;;
37169;SDS011;23062;13.952;100.608;2023-05-10T23:56:10;34.00;;;25.00;;
